createdAt,value
2024-01-15T00:00:43.077Z,22.19
2024-01-15T00:01:43.108Z,22.19
2024-01-15T00:02:43.146Z,22.19
2024-01-15T00:03:45.041Z,22.19
2024-01-15T00:04:43.201Z,22.19
2024-01-15T00:05:43.192Z,22.20
2024-01-15T00:06:43.275Z,22.19
2024-01-15T00:07:43.150Z,22.19
2024-01-15T00:08:43.136Z,22.20
2024-01-15T00:09:43.151Z,22.19
2024-01-15T00:10:43.122Z,22.19
2024-01-15T00:11:43.124Z,22.19
2024-01-15T00:12:43.196Z,22.17
2024-01-15T00:13:43.111Z,22.19
2024-01-15T00:14:43.101Z,22.17
2024-01-15T00:15:43.177Z,22.19
2024-01-15T00:16:43.090Z,22.17
2024-01-15T00:17:43.404Z,22.17
2024-01-15T00:18:43.212Z,22.19
2024-01-15T00:19:43.195Z,22.17
2024-01-15T00:20:43.051Z,22.17
2024-01-15T00:21:43.188Z,22.20
2024-01-15T00:22:43.053Z,22.17
2024-01-15T00:23:43.025Z,22.17
2024-01-15T00:24:43.109Z,22.17
2024-01-15T00:25:43.035Z,22.22
2024-01-15T00:26:43.024Z,22.17
2024-01-15T00:27:43.133Z,22.19
2024-01-15T00:28:42.983Z,22.16
2024-01-15T00:29:42.975Z,22.16
2024-01-15T00:30:43.049Z,22.17
2024-01-15T00:31:43.294Z,22.17
2024-01-15T00:32:43.017Z,22.16
2024-01-15T00:33:43.097Z,22.16
2024-01-15T00:34:43.027Z,22.17
2024-01-15T00:35:42.894Z,22.16
2024-01-15T00:36:42.908Z,22.15
2024-01-15T00:37:42.889Z,22.17
2024-01-15T00:38:42.851Z,22.16
2024-01-15T00:39:42.893Z,22.17
2024-01-15T00:40:42.910Z,22.17
2024-01-15T00:41:42.950Z,22.16
2024-01-15T00:42:43.008Z,22.17
2024-01-15T00:43:43.041Z,22.17
2024-01-15T00:44:43.094Z,22.17
2024-01-15T00:45:43.199Z,22.16
2024-01-15T00:46:43.251Z,22.19
2024-01-15T00:47:43.294Z,22.16
2024-01-15T00:48:43.358Z,22.17
2024-01-15T00:49:43.402Z,22.16
2024-01-15T00:50:43.381Z,22.19
2024-01-15T00:51:43.482Z,22.16
2024-01-15T00:52:43.468Z,22.16
2024-01-15T00:53:43.493Z,22.17
2024-01-15T00:54:43.573Z,22.16
2024-01-15T00:55:43.584Z,22.17
2024-01-15T00:56:43.617Z,22.17
2024-01-15T00:57:43.678Z,22.16
2024-01-15T00:58:43.700Z,22.17
2024-01-15T00:59:43.855Z,22.17
2024-01-15T01:00:43.872Z,22.16
2024-01-15T01:01:43.902Z,22.16
2024-01-15T01:02:43.958Z,22.17
2024-01-15T01:03:44.033Z,22.16
2024-01-15T01:04:43.989Z,22.15
2024-01-15T01:05:44.110Z,22.16
2024-01-15T01:06:44.096Z,22.16
2024-01-15T01:07:44.102Z,22.17
2024-01-15T01:08:44.170Z,22.15
2024-01-15T01:09:44.296Z,22.16
2024-01-15T01:10:44.295Z,22.16
2024-01-15T01:11:44.366Z,22.17
2024-01-15T01:12:44.516Z,22.16
2024-01-15T01:13:44.492Z,22.16
2024-01-15T01:14:44.520Z,22.16
2024-01-15T01:15:44.706Z,22.16
2024-01-15T01:16:44.656Z,22.15
2024-01-15T01:17:44.833Z,22.16
2024-01-15T01:18:44.950Z,22.13
2024-01-15T01:19:44.969Z,22.12
2024-01-15T01:20:44.907Z,22.15
2024-01-15T01:21:45.107Z,22.16
2024-01-15T01:22:45.017Z,22.15
2024-01-15T01:23:45.107Z,22.15
2024-01-15T01:24:45.177Z,22.16
2024-01-15T01:25:45.234Z,22.15
2024-01-15T01:26:45.245Z,22.13
2024-01-15T01:27:45.404Z,22.15
2024-01-15T01:28:45.368Z,22.13
2024-01-15T01:29:45.428Z,22.15
2024-01-15T01:30:45.595Z,22.15
2024-01-15T01:31:45.653Z,22.13
2024-01-15T01:32:45.673Z,22.13
2024-01-15T01:33:45.850Z,22.17
2024-01-15T01:34:45.796Z,22.17
2024-01-15T01:35:45.810Z,22.16
2024-01-15T01:36:45.881Z,22.13
2024-01-15T01:37:45.872Z,22.15
2024-01-15T01:38:45.932Z,22.15
2024-01-15T01:39:46.201Z,22.17
2024-01-15T01:40:46.054Z,22.15
2024-01-15T01:41:46.120Z,22.12
2024-01-15T01:42:46.296Z,22.13
2024-01-15T01:43:46.256Z,22.15
2024-01-15T01:44:46.338Z,22.16
2024-01-15T01:45:46.393Z,22.15
2024-01-15T01:46:46.442Z,22.13
2024-01-15T01:47:46.523Z,22.13
2024-01-15T01:48:46.627Z,22.15
2024-01-15T01:49:46.664Z,22.16
2024-01-15T01:50:47.356Z,22.13
2024-01-15T01:51:46.763Z,22.12
2024-01-15T01:52:46.781Z,22.15
2024-01-15T01:53:46.835Z,22.13
2024-01-15T01:54:46.990Z,22.13
2024-01-15T01:55:46.955Z,22.13
2024-01-15T01:56:47.034Z,22.15
2024-01-15T01:57:47.170Z,22.15
2024-01-15T01:58:47.142Z,22.15
2024-01-15T01:59:47.205Z,22.13
2024-01-15T02:00:47.304Z,22.12
2024-01-15T02:01:47.399Z,22.13
2024-01-15T02:02:47.394Z,22.12
2024-01-15T02:03:47.561Z,22.15
2024-01-15T02:04:47.542Z,22.15
2024-01-15T02:05:47.573Z,22.12
2024-01-15T02:06:47.689Z,22.15
2024-01-15T02:07:47.692Z,22.13
2024-01-15T02:08:47.748Z,22.13
2024-01-15T02:09:47.907Z,22.12
2024-01-15T02:10:47.882Z,22.15
2024-01-15T02:11:47.949Z,22.12
2024-01-15T02:12:48.080Z,22.15
2024-01-15T02:13:48.057Z,22.15
2024-01-15T02:14:48.098Z,22.12
2024-01-15T02:15:48.216Z,22.11
2024-01-15T02:16:48.220Z,22.13
2024-01-15T02:17:48.298Z,22.12
2024-01-15T02:18:48.428Z,22.11
2024-01-15T02:19:48.508Z,22.13
2024-01-15T02:20:48.448Z,22.12
2024-01-15T02:21:48.521Z,22.11
2024-01-15T02:22:48.556Z,22.15
2024-01-15T02:23:48.613Z,22.11
2024-01-15T02:24:48.745Z,22.11
2024-01-15T02:25:48.732Z,22.13
2024-01-15T02:26:48.796Z,22.12
2024-01-15T02:27:49.030Z,22.13
2024-01-15T02:28:48.913Z,22.15
2024-01-15T02:29:48.971Z,22.09
2024-01-15T02:30:49.172Z,22.13
2024-01-15T02:31:49.224Z,22.15
2024-01-15T02:32:49.221Z,22.13
2024-01-15T02:33:49.358Z,22.12
2024-01-15T02:34:49.511Z,22.13
2024-01-15T02:35:49.306Z,22.11
2024-01-15T02:36:49.425Z,22.11
2024-01-15T02:37:49.414Z,22.12
2024-01-15T02:38:49.445Z,22.12
2024-01-15T02:39:49.538Z,22.13
2024-01-15T02:40:49.557Z,22.11
2024-01-15T02:41:49.600Z,22.11
2024-01-15T02:42:49.705Z,22.12
2024-01-15T02:43:49.700Z,22.12
2024-01-15T02:44:49.773Z,22.12
2024-01-15T02:45:49.914Z,22.12
2024-01-15T02:46:49.864Z,22.11
2024-01-15T02:47:49.921Z,22.12
2024-01-15T02:48:49.981Z,22.11
2024-01-15T02:49:50.049Z,22.12
2024-01-15T02:50:50.074Z,22.13
2024-01-15T02:51:50.147Z,22.11
2024-01-15T02:52:50.162Z,22.12
2024-01-15T02:53:50.226Z,22.13
2024-01-15T02:54:50.310Z,22.11
2024-01-15T02:55:50.363Z,22.11
2024-01-15T02:56:50.378Z,22.11
2024-01-15T02:57:50.516Z,22.11
2024-01-15T02:58:50.447Z,22.12
2024-01-15T02:59:50.493Z,22.12
2024-01-15T03:00:50.599Z,22.13
2024-01-15T03:01:50.636Z,22.11
2024-01-15T03:02:50.738Z,22.09
2024-01-15T03:03:50.771Z,22.12
2024-01-15T03:04:50.754Z,22.11
2024-01-15T03:05:50.929Z,22.11
2024-01-15T03:06:50.943Z,22.11
2024-01-15T03:07:50.906Z,22.09
2024-01-15T03:08:50.951Z,22.12
2024-01-15T03:09:51.057Z,22.11
2024-01-15T03:10:51.083Z,22.09
2024-01-15T03:11:51.120Z,22.11
2024-01-15T03:12:51.199Z,22.13
2024-01-15T03:13:51.213Z,22.12
2024-01-15T03:14:51.272Z,22.11
2024-01-15T03:15:51.362Z,22.09
2024-01-15T03:16:51.410Z,22.09
2024-01-15T03:17:51.502Z,22.12
2024-01-15T03:18:51.579Z,22.09
2024-01-15T03:19:51.556Z,22.11
2024-01-15T03:20:51.599Z,22.09
2024-01-15T03:21:51.734Z,22.11
2024-01-15T03:22:51.671Z,22.09
2024-01-15T03:23:51.718Z,22.11
2024-01-15T03:24:51.821Z,22.09
2024-01-15T03:25:51.844Z,22.09
2024-01-15T03:26:51.889Z,22.11
2024-01-15T03:27:52.014Z,22.09
2024-01-15T03:28:52.008Z,22.09
2024-01-15T03:29:52.058Z,22.13
2024-01-15T03:30:52.228Z,22.09
2024-01-15T03:31:52.206Z,22.12
2024-01-15T03:32:52.269Z,22.12
2024-01-15T03:33:52.302Z,22.12
2024-01-15T03:34:52.344Z,22.12
2024-01-15T03:35:52.360Z,22.12
2024-01-15T03:36:52.423Z,22.12
2024-01-15T03:37:52.484Z,22.13
2024-01-15T03:38:52.524Z,22.15
2024-01-15T03:39:52.718Z,22.13
2024-01-15T03:40:52.736Z,22.15
2024-01-15T03:41:52.681Z,22.16
2024-01-15T03:42:52.802Z,22.15
2024-01-15T03:43:52.809Z,22.17
2024-01-15T03:44:52.872Z,22.16
2024-01-15T03:45:52.991Z,22.17
2024-01-15T03:46:53.043Z,22.19
2024-01-15T03:47:53.134Z,22.20
2024-01-15T03:48:53.161Z,22.22
2024-01-15T03:49:53.196Z,22.20
2024-01-15T03:50:53.215Z,22.25
2024-01-15T03:51:53.461Z,22.20
2024-01-15T03:52:53.478Z,22.23
2024-01-15T03:53:53.474Z,22.25
2024-01-15T03:54:53.560Z,22.23
2024-01-15T03:55:53.517Z,22.25
2024-01-15T03:56:53.535Z,22.26
2024-01-15T03:57:53.645Z,22.26
2024-01-15T03:58:53.634Z,22.28
2024-01-15T03:59:53.706Z,22.28
2024-01-15T04:00:53.823Z,22.29
2024-01-15T04:01:53.796Z,22.31
2024-01-15T04:02:53.850Z,22.29
2024-01-15T04:03:53.937Z,22.29
2024-01-15T04:04:54.006Z,22.31
2024-01-15T04:05:54.006Z,22.32
2024-01-15T04:06:54.068Z,22.32
2024-01-15T04:07:54.086Z,22.35
2024-01-15T04:08:54.126Z,22.36
2024-01-15T04:09:54.261Z,22.35
2024-01-15T04:10:54.240Z,22.36
2024-01-15T04:11:54.279Z,22.35
2024-01-15T04:12:54.327Z,22.39
2024-01-15T04:13:54.411Z,22.36
2024-01-15T04:14:54.416Z,22.38
2024-01-15T04:15:54.491Z,22.38
2024-01-15T04:16:54.508Z,22.40
2024-01-15T04:17:54.559Z,22.39
2024-01-15T04:18:54.631Z,22.42
2024-01-15T04:19:54.703Z,22.40
2024-01-15T04:20:54.658Z,22.40
2024-01-15T04:21:54.783Z,22.40
2024-01-15T04:22:54.747Z,22.43
2024-01-15T04:23:54.816Z,22.40
2024-01-15T04:24:54.913Z,22.40
2024-01-15T04:25:54.896Z,22.44
2024-01-15T04:26:55.181Z,22.43
2024-01-15T04:27:55.030Z,22.43
2024-01-15T04:28:55.031Z,22.44
2024-01-15T04:29:55.099Z,22.43
2024-01-15T04:30:55.282Z,22.44
2024-01-15T04:31:55.226Z,22.46
2024-01-15T04:32:55.276Z,22.46
2024-01-15T04:33:55.417Z,22.44
2024-01-15T04:34:55.324Z,22.46
2024-01-15T04:35:55.368Z,22.46
2024-01-15T04:36:55.464Z,22.44
2024-01-15T04:37:55.465Z,22.47
2024-01-15T04:38:55.508Z,22.49
2024-01-15T04:39:55.596Z,22.47
2024-01-15T04:40:58.405Z,22.47
2024-01-15T04:41:55.598Z,22.49
2024-01-15T04:42:55.601Z,22.50
2024-01-15T04:43:55.586Z,22.50
2024-01-15T04:44:55.580Z,22.52
2024-01-15T04:45:55.632Z,22.52
2024-01-15T04:46:55.570Z,22.52
2024-01-15T04:47:55.565Z,22.52
2024-01-15T04:48:55.648Z,22.52
2024-01-15T04:49:55.598Z,22.52
2024-01-15T04:50:55.544Z,22.53
2024-01-15T04:51:55.600Z,22.53
2024-01-15T04:52:55.544Z,22.52
2024-01-15T04:53:55.541Z,22.53
2024-01-15T04:54:55.579Z,22.54
2024-01-15T04:55:55.533Z,22.50
2024-01-15T04:56:55.536Z,22.52
2024-01-15T04:57:55.564Z,22.53
2024-01-15T04:58:55.522Z,22.56
2024-01-15T04:59:55.516Z,22.56
2024-01-15T05:01:03.061Z,22.50
2024-01-15T05:02:02.848Z,22.52
2024-01-15T05:03:02.890Z,22.54
2024-01-15T05:04:03.012Z,22.53
2024-01-15T05:05:02.834Z,22.54
2024-01-15T05:06:02.902Z,22.53
2024-01-15T05:07:02.937Z,22.54
2024-01-15T05:08:02.817Z,22.56
2024-01-15T05:09:02.823Z,22.54
2024-01-15T05:10:02.931Z,22.56
2024-01-15T05:11:02.813Z,22.54
2024-01-15T05:12:02.799Z,22.59
2024-01-15T05:13:02.790Z,22.56
2024-01-15T05:14:02.800Z,22.56
2024-01-15T05:15:02.775Z,22.59
2024-01-15T05:16:02.809Z,22.60
2024-01-15T05:17:02.771Z,22.59
2024-01-15T05:18:02.837Z,22.57
2024-01-15T05:19:02.850Z,22.57
2024-01-15T05:20:02.956Z,22.57
2024-01-15T05:21:02.710Z,22.60
2024-01-15T05:22:02.709Z,22.59
2024-01-15T05:23:02.693Z,22.59
2024-01-15T05:24:02.672Z,22.59
2024-01-15T05:25:02.663Z,22.60
2024-01-15T05:26:02.638Z,22.60
2024-01-15T05:27:02.657Z,22.59
2024-01-15T05:28:02.629Z,22.57
2024-01-15T05:29:02.618Z,22.56
2024-01-15T05:30:02.592Z,22.60
2024-01-15T05:31:02.682Z,22.59
2024-01-15T05:32:03.100Z,22.57
2024-01-15T05:33:02.639Z,22.59
2024-01-15T05:34:02.685Z,22.60
2024-01-15T05:35:02.709Z,22.59
2024-01-15T05:36:02.705Z,22.59
2024-01-15T05:37:02.770Z,22.59
2024-01-15T05:38:02.979Z,22.60
2024-01-15T05:39:02.841Z,22.62
2024-01-15T05:40:02.908Z,22.59
2024-01-15T05:41:02.922Z,22.62
2024-01-15T05:42:02.983Z,22.60
2024-01-15T05:43:03.016Z,22.62
2024-01-15T05:44:03.061Z,22.60
2024-01-15T05:45:03.108Z,22.60
2024-01-15T05:46:03.231Z,22.60
2024-01-15T05:47:03.197Z,22.60
2024-01-15T05:48:03.300Z,22.60
2024-01-15T05:49:03.423Z,22.62
2024-01-15T05:50:03.438Z,22.60
2024-01-15T05:51:03.357Z,22.60
2024-01-15T05:52:03.392Z,22.59
2024-01-15T05:53:03.432Z,22.62
2024-01-15T05:54:03.481Z,22.59
2024-01-15T05:55:03.524Z,22.62
2024-01-15T05:56:03.545Z,22.57
2024-01-15T05:57:03.584Z,22.57
2024-01-15T05:58:03.601Z,22.59
2024-01-15T05:59:03.669Z,22.57
2024-01-15T06:00:03.777Z,22.62
2024-01-15T06:01:03.784Z,22.59
2024-01-15T06:02:03.788Z,22.59
2024-01-15T06:03:03.825Z,22.59
2024-01-15T06:04:03.995Z,22.59
2024-01-15T06:05:03.973Z,22.60
2024-01-15T06:06:04.201Z,22.59
2024-01-15T06:07:04.045Z,22.60
2024-01-15T06:08:04.016Z,22.59
2024-01-15T06:09:04.071Z,22.59
2024-01-15T06:10:04.093Z,22.60
2024-01-15T06:11:04.140Z,22.59
2024-01-15T06:12:04.172Z,22.60
2024-01-15T06:13:04.216Z,22.60
2024-01-15T06:14:04.262Z,22.60
2024-01-15T06:15:04.302Z,22.59
2024-01-15T06:16:06.692Z,22.60
2024-01-15T06:17:04.438Z,22.59
2024-01-15T06:18:04.560Z,22.60
2024-01-15T06:19:04.714Z,22.62
2024-01-15T06:20:04.633Z,22.59
2024-01-15T06:21:04.594Z,22.59
2024-01-15T06:22:04.668Z,22.57
2024-01-15T06:23:04.638Z,22.57
2024-01-15T06:24:04.662Z,22.57
2024-01-15T06:25:04.700Z,22.56
2024-01-15T06:26:04.737Z,22.56
2024-01-15T06:27:04.769Z,22.57
2024-01-15T06:28:04.833Z,22.53
2024-01-15T06:29:04.881Z,22.54
2024-01-15T06:30:04.994Z,22.52
2024-01-15T06:31:05.063Z,22.50
2024-01-15T06:32:05.140Z,22.47
2024-01-15T06:33:05.230Z,22.44
2024-01-15T06:34:05.229Z,22.38
2024-01-15T06:35:05.080Z,22.31
2024-01-15T06:36:06.081Z,22.20
2024-01-15T06:37:05.084Z,22.09
2024-01-15T06:38:05.068Z,21.95
2024-01-15T06:39:05.072Z,21.82
2024-01-15T06:40:05.102Z,21.68
2024-01-15T06:41:05.076Z,21.62
2024-01-15T06:42:05.076Z,21.60
2024-01-15T06:43:05.076Z,21.57
2024-01-15T06:44:05.088Z,21.58
2024-01-15T06:45:05.076Z,21.56
2024-01-15T06:46:07.549Z,21.57
2024-01-15T06:47:05.088Z,21.54
2024-01-15T06:48:05.142Z,21.53
2024-01-15T06:49:05.196Z,21.53
2024-01-15T06:50:05.127Z,21.53
2024-01-15T06:51:05.092Z,21.56
2024-01-15T06:52:05.084Z,21.60
2024-01-15T06:53:05.065Z,21.64
2024-01-15T06:54:05.058Z,21.68
2024-01-15T06:55:05.061Z,21.71
2024-01-15T06:56:05.050Z,21.74
2024-01-15T06:57:05.052Z,21.76
2024-01-15T06:58:05.036Z,21.80
2024-01-15T06:59:05.025Z,21.85
2024-01-15T07:00:05.013Z,21.87
2024-01-15T07:01:05.040Z,21.89
2024-01-15T07:02:05.003Z,21.94
2024-01-15T07:03:05.028Z,21.98
2024-01-15T07:04:05.021Z,21.98
2024-01-15T07:05:05.004Z,22.01
2024-01-15T07:06:04.960Z,22.05
2024-01-15T07:07:04.952Z,22.06
2024-01-15T07:08:04.946Z,22.11
2024-01-15T07:09:04.934Z,22.16
2024-01-15T07:10:04.907Z,22.19
2024-01-15T07:11:04.893Z,22.19
2024-01-15T07:12:04.880Z,22.25
2024-01-15T07:13:04.881Z,22.31
2024-01-15T07:14:04.857Z,22.35
2024-01-15T07:15:05.495Z,22.31
2024-01-15T07:16:04.856Z,22.35
2024-01-15T07:17:04.809Z,22.36
2024-01-15T07:18:04.833Z,22.40
2024-01-15T07:19:04.890Z,22.44
2024-01-15T07:20:04.830Z,22.47
2024-01-15T07:21:04.741Z,22.49
2024-01-15T07:22:04.781Z,22.50
2024-01-15T07:23:04.713Z,22.53
2024-01-15T07:24:04.701Z,22.54
2024-01-15T07:25:04.734Z,22.57
2024-01-15T07:26:04.670Z,22.62
2024-01-15T07:27:04.686Z,22.63
2024-01-15T07:28:04.641Z,22.64
2024-01-15T07:29:04.636Z,22.67
2024-01-15T07:30:05.537Z,22.68
2024-01-15T07:31:05.673Z,22.70
2024-01-15T07:32:04.590Z,22.73
2024-01-15T07:33:04.638Z,22.77
2024-01-15T07:34:04.580Z,22.77
2024-01-15T07:35:04.541Z,22.78
2024-01-15T07:36:04.525Z,22.78
2024-01-15T07:37:04.504Z,22.84
2024-01-15T07:38:04.482Z,22.83
2024-01-15T07:39:04.471Z,22.86
2024-01-15T07:40:04.524Z,22.90
2024-01-15T07:41:04.453Z,22.90
2024-01-15T07:42:04.452Z,22.87
2024-01-15T07:43:04.429Z,22.90
2024-01-15T07:44:04.419Z,22.90
2024-01-15T07:45:04.553Z,22.94
2024-01-15T07:46:04.542Z,22.93
2024-01-15T07:47:04.506Z,22.93
2024-01-15T07:48:04.661Z,22.95
2024-01-15T07:49:04.661Z,22.95
2024-01-15T07:50:06.391Z,22.95
2024-01-15T07:51:04.644Z,22.94
2024-01-15T07:52:04.689Z,22.95
2024-01-15T07:53:04.725Z,22.94
2024-01-15T07:54:04.776Z,22.94
2024-01-15T07:55:05.254Z,22.95
2024-01-15T07:56:04.836Z,22.97
2024-01-15T07:57:04.878Z,22.95
2024-01-15T07:58:11.916Z,22.97
2024-01-15T07:59:05.924Z,22.95
2024-01-15T08:00:04.916Z,22.95
2024-01-15T08:01:04.975Z,22.94
2024-01-15T08:02:04.904Z,22.93
2024-01-15T08:03:04.899Z,22.94
2024-01-15T08:04:04.953Z,22.95
2024-01-15T08:05:04.944Z,22.94
2024-01-15T08:06:05.035Z,22.94
2024-01-15T08:07:04.885Z,22.94
2024-01-15T08:08:05.854Z,22.95
2024-01-15T08:09:04.912Z,22.93
2024-01-15T08:10:04.865Z,22.91
2024-01-15T08:11:04.810Z,22.94
2024-01-15T08:12:04.821Z,22.94
2024-01-15T08:13:04.815Z,22.91
2024-01-15T08:14:04.805Z,22.93
2024-01-15T08:15:04.785Z,22.93
2024-01-15T08:16:04.809Z,22.91
2024-01-15T08:17:04.827Z,22.90
2024-01-15T08:18:04.958Z,22.91
2024-01-15T08:19:05.046Z,22.88
2024-01-15T08:20:05.079Z,22.88
2024-01-15T08:21:05.036Z,22.88
2024-01-15T08:22:05.093Z,22.91
2024-01-15T08:23:05.154Z,22.90
2024-01-15T08:24:05.236Z,22.91
2024-01-15T08:25:05.221Z,22.91
2024-01-15T08:26:05.255Z,22.91
2024-01-15T08:27:05.297Z,22.93
2024-01-15T08:28:05.317Z,22.88
2024-01-15T08:29:06.978Z,22.94
2024-01-15T08:30:05.321Z,22.88
2024-01-15T08:31:07.092Z,22.90
2024-01-15T08:32:05.324Z,22.91
2024-01-15T08:33:11.452Z,22.91
2024-01-15T08:34:07.069Z,22.93
2024-01-15T08:35:05.352Z,22.91
2024-01-15T08:36:05.194Z,22.93
2024-01-15T08:37:05.176Z,22.95
2024-01-15T08:38:05.176Z,22.93
2024-01-15T08:39:05.236Z,22.95
2024-01-15T08:40:06.027Z,22.98
2024-01-15T08:41:05.131Z,22.97
2024-01-15T08:42:05.114Z,22.98
2024-01-15T08:43:05.104Z,22.95
2024-01-15T08:44:05.094Z,23.00
2024-01-15T08:45:05.227Z,23.01
2024-01-15T08:46:05.130Z,23.01
2024-01-15T08:47:05.559Z,23.01
2024-01-15T08:48:05.120Z,23.04
2024-01-15T08:49:05.073Z,23.01
2024-01-15T08:50:05.035Z,23.04
2024-01-15T08:51:05.562Z,23.05
2024-01-15T08:52:04.991Z,23.07
2024-01-15T08:53:04.989Z,23.07
2024-01-15T08:54:04.936Z,23.07
2024-01-15T08:55:05.566Z,23.09
2024-01-15T08:56:04.914Z,23.08
2024-01-15T08:57:04.931Z,23.09
2024-01-15T08:58:04.948Z,23.11
2024-01-15T08:59:05.007Z,23.11
2024-01-15T09:00:05.990Z,23.14
2024-01-15T09:01:05.220Z,23.14
2024-01-15T09:02:05.153Z,23.14
2024-01-15T09:03:05.990Z,23.15
2024-01-15T09:04:05.354Z,23.18
2024-01-15T09:05:05.508Z,23.17
2024-01-15T09:06:05.331Z,23.17
2024-01-15T09:07:05.393Z,23.17
2024-01-15T09:08:05.427Z,23.19
2024-01-15T09:09:05.512Z,23.18
2024-01-15T09:10:05.546Z,23.18
2024-01-15T09:11:05.594Z,23.22
2024-01-15T09:12:05.648Z,23.23
2024-01-15T09:13:05.702Z,23.25
2024-01-15T09:14:05.741Z,23.28
2024-01-15T09:15:05.890Z,23.30
2024-01-15T09:16:06.188Z,23.32
2024-01-15T09:17:05.889Z,23.39
2024-01-15T09:18:08.231Z,23.41
2024-01-15T09:19:05.973Z,23.45
2024-01-15T09:20:05.900Z,23.48
2024-01-15T09:21:05.854Z,23.48
2024-01-15T09:22:05.814Z,23.53
2024-01-15T09:23:05.798Z,23.66
2024-01-15T09:24:05.765Z,23.66
2024-01-15T09:25:05.851Z,23.63
2024-01-15T09:26:06.578Z,23.73
2024-01-15T09:27:05.755Z,23.85
2024-01-15T09:28:05.684Z,23.91
2024-01-15T09:29:05.662Z,24.00
2024-01-15T09:30:05.672Z,24.14
2024-01-15T09:31:05.819Z,24.49
2024-01-15T09:32:05.689Z,24.86
2024-01-15T09:33:05.647Z,25.27
2024-01-15T09:34:06.676Z,25.66
2024-01-15T09:35:05.563Z,25.97
2024-01-15T09:36:05.608Z,26.33
2024-01-15T09:37:05.539Z,26.93
2024-01-15T09:38:05.527Z,27.51
2024-01-15T09:39:05.518Z,27.85
2024-01-15T09:40:05.454Z,28.33
2024-01-15T09:41:05.428Z,28.81
2024-01-15T09:42:05.378Z,29.39
2024-01-15T09:43:05.379Z,30.04
2024-01-15T09:44:05.280Z,30.39
2024-01-15T09:45:05.231Z,30.88
2024-01-15T09:46:05.203Z,31.66
2024-01-15T09:47:05.095Z,32.24
2024-01-15T09:48:05.067Z,32.62
2024-01-15T09:49:05.095Z,33.06
2024-01-15T09:50:05.077Z,33.54
2024-01-15T09:51:04.943Z,34.05
2024-01-15T09:52:09.467Z,34.67
2024-01-15T09:53:05.830Z,35.46
2024-01-15T09:54:05.614Z,36.11
2024-01-15T09:55:04.782Z,36.66
2024-01-15T09:56:04.568Z,37.20
2024-01-15T09:57:04.469Z,37.64
2024-01-15T09:58:04.468Z,37.92
2024-01-15T09:59:04.305Z,37.41
2024-01-15T10:00:04.234Z,36.30
2024-01-15T10:01:07.107Z,35.42
2024-01-15T10:02:04.062Z,34.56
2024-01-15T10:03:03.952Z,33.81
2024-01-15T10:04:03.978Z,33.16
2024-01-15T10:05:03.887Z,32.62
2024-01-15T10:06:03.778Z,32.13
2024-01-15T10:07:03.751Z,31.70
2024-01-15T10:08:03.607Z,31.36
2024-01-15T10:09:03.542Z,31.02
2024-01-15T10:10:03.513Z,30.77
2024-01-15T10:11:03.442Z,30.65
2024-01-15T10:12:03.397Z,31.15
2024-01-15T10:13:03.375Z,32.32
2024-01-15T10:14:03.307Z,33.46
2024-01-15T10:15:03.325Z,34.43
2024-01-15T10:16:03.273Z,35.32
2024-01-15T10:17:03.165Z,36.08
2024-01-15T10:18:03.215Z,36.72
2024-01-15T10:19:03.173Z,37.33
2024-01-15T10:20:03.045Z,37.85
2024-01-15T10:21:02.898Z,38.44
2024-01-15T10:22:02.872Z,38.74
2024-01-15T10:23:02.729Z,39.20
2024-01-15T10:24:02.632Z,39.59
2024-01-15T10:25:02.545Z,39.88
2024-01-15T10:26:02.427Z,40.12
2024-01-15T10:27:03.116Z,40.31
2024-01-15T10:28:02.320Z,40.45
2024-01-15T10:29:02.099Z,40.59
2024-01-15T10:30:02.018Z,40.69
2024-01-15T10:31:02.167Z,40.80
2024-01-15T10:32:02.063Z,40.91
2024-01-15T10:33:02.005Z,41.00
2024-01-15T10:34:01.985Z,41.00
2024-01-15T10:35:01.988Z,40.98
2024-01-15T10:36:01.911Z,40.93
2024-01-15T10:37:01.895Z,40.82
2024-01-15T10:38:01.854Z,40.55
2024-01-15T10:39:01.801Z,39.86
2024-01-15T10:40:01.784Z,38.86
2024-01-15T10:41:01.743Z,37.68
2024-01-15T10:42:01.695Z,36.63
2024-01-15T10:43:01.718Z,35.63
2024-01-15T10:44:01.620Z,34.80
2024-01-15T10:45:01.872Z,34.03
2024-01-15T10:46:01.599Z,33.34
2024-01-15T10:47:01.465Z,32.69
2024-01-15T10:48:01.644Z,32.14
2024-01-15T10:49:01.406Z,31.63
2024-01-15T10:50:01.576Z,31.17
2024-01-15T10:51:01.255Z,30.74
2024-01-15T10:52:01.329Z,30.39
2024-01-15T10:53:01.206Z,30.04
2024-01-15T10:54:01.203Z,29.73
2024-01-15T10:55:05.267Z,29.45
2024-01-15T10:56:02.152Z,29.21
2024-01-15T10:57:01.095Z,28.98
2024-01-15T10:58:01.112Z,28.77
2024-01-15T10:59:01.220Z,28.58
2024-01-15T11:00:00.999Z,28.39
2024-01-15T11:01:01.065Z,28.22
2024-01-15T11:02:01.011Z,28.06
2024-01-15T11:03:00.865Z,27.89
2024-01-15T11:04:00.949Z,27.71
2024-01-15T11:05:00.859Z,27.57
2024-01-15T11:06:00.820Z,27.41
2024-01-15T11:07:00.799Z,27.29
2024-01-15T11:08:00.748Z,27.14
2024-01-15T11:09:00.753Z,27.03
2024-01-15T11:10:00.730Z,26.89
2024-01-15T11:11:00.707Z,26.75
2024-01-15T11:12:00.653Z,26.65
2024-01-15T11:13:00.825Z,26.52
2024-01-15T11:14:00.643Z,26.43
2024-01-15T11:15:00.621Z,26.31
2024-01-15T11:16:00.850Z,26.16
2024-01-15T11:17:00.676Z,25.97
2024-01-15T11:18:00.893Z,25.83
2024-01-15T11:19:01.712Z,25.75
2024-01-15T11:20:00.809Z,25.68
2024-01-15T11:21:00.706Z,25.64
2024-01-15T11:22:00.860Z,25.55
2024-01-15T11:23:00.708Z,25.52
2024-01-15T11:24:00.836Z,25.46
2024-01-15T11:25:00.933Z,25.44
2024-01-15T11:26:00.960Z,25.37
2024-01-15T11:27:00.956Z,25.35
2024-01-15T11:28:01.025Z,25.32
2024-01-15T11:29:00.984Z,25.28
2024-01-15T11:30:01.024Z,25.27
2024-01-15T11:31:01.153Z,25.22
2024-01-15T11:32:01.273Z,25.18
2024-01-15T11:33:01.274Z,25.18
2024-01-15T11:34:01.281Z,25.14
2024-01-15T11:35:01.450Z,25.09
2024-01-15T11:36:01.241Z,25.09
2024-01-15T11:37:01.366Z,25.09
2024-01-15T11:38:01.301Z,25.02
2024-01-15T11:39:01.326Z,25.00
2024-01-15T11:40:01.387Z,25.00
2024-01-15T11:41:01.380Z,24.96
2024-01-15T11:42:01.560Z,24.97
2024-01-15T11:43:01.688Z,24.94
2024-01-15T11:44:01.460Z,24.94
2024-01-15T11:45:01.599Z,24.90
2024-01-15T11:46:01.590Z,24.87
2024-01-15T11:47:01.553Z,24.89
2024-01-15T11:48:01.882Z,24.87
2024-01-15T11:49:01.722Z,24.83
2024-01-15T11:50:01.779Z,24.83
2024-01-15T11:51:01.675Z,24.83
2024-01-15T11:52:01.719Z,24.83
2024-01-15T11:53:05.419Z,24.84
2024-01-15T11:54:02.694Z,24.83
2024-01-15T11:55:01.660Z,24.83
2024-01-15T11:56:01.623Z,24.83
2024-01-15T11:57:02.160Z,24.82
2024-01-15T11:58:01.654Z,24.83
2024-01-15T11:59:04.427Z,24.83
2024-01-15T12:00:01.529Z,24.82
2024-01-15T12:01:01.711Z,24.82
2024-01-15T12:02:01.455Z,24.82
2024-01-15T12:03:01.413Z,24.83
2024-01-15T12:04:01.489Z,24.82
2024-01-15T12:05:01.414Z,24.82
2024-01-15T12:06:01.400Z,24.83
2024-01-15T12:07:01.386Z,24.83
2024-01-15T12:08:01.272Z,24.84
2024-01-15T12:09:01.246Z,24.84
2024-01-15T12:10:01.273Z,24.87
2024-01-15T12:11:01.343Z,24.84
2024-01-15T12:12:01.162Z,24.83
2024-01-15T12:13:01.270Z,24.82
2024-01-15T12:14:01.154Z,24.83
2024-01-15T12:15:01.252Z,24.84
2024-01-15T12:16:01.145Z,24.84
2024-01-15T12:17:03.649Z,24.84
2024-01-15T12:18:01.169Z,24.84
2024-01-15T12:19:01.160Z,24.84
2024-01-15T12:20:00.998Z,24.82
2024-01-15T12:21:00.929Z,24.83
2024-01-15T12:22:00.900Z,24.82
2024-01-15T12:23:02.846Z,24.80
2024-01-15T12:24:00.853Z,24.80
2024-01-15T12:25:00.826Z,24.79
2024-01-15T12:26:00.807Z,24.80
2024-01-15T12:27:00.779Z,24.76
2024-01-15T12:28:00.770Z,24.77
2024-01-15T12:29:00.725Z,24.76
2024-01-15T12:30:00.701Z,24.76
2024-01-15T12:31:00.782Z,24.73
2024-01-15T12:32:00.660Z,24.70
2024-01-15T12:33:00.658Z,24.70
2024-01-15T12:34:00.684Z,24.69
2024-01-15T12:35:03.106Z,24.67
2024-01-15T12:36:00.585Z,24.65
2024-01-15T12:37:00.550Z,24.67
2024-01-15T12:38:00.537Z,24.65
2024-01-15T12:39:00.518Z,24.62
2024-01-15T12:40:00.642Z,24.60
2024-01-15T12:41:00.545Z,24.62
2024-01-15T12:42:00.459Z,24.59
2024-01-15T12:43:00.426Z,24.58
2024-01-15T12:44:00.395Z,24.56
2024-01-15T12:45:00.378Z,24.55
2024-01-15T12:46:00.452Z,24.55
2024-01-15T12:47:00.321Z,24.55
2024-01-15T12:48:00.328Z,24.51
2024-01-15T12:49:00.438Z,24.49
2024-01-15T12:50:09.567Z,24.48
2024-01-15T12:51:01.231Z,24.46
2024-01-15T12:52:00.264Z,24.48
2024-01-15T12:53:00.226Z,24.45